Time;durP1;ratioP1;P1;durP2;ratioP2;P2;SDS_P1;SDS_P2;PMS_P1;PMS_P2;Temp;Humidity;BMP_temperature;BMP_pressure;BME280_temperature;BME280_humidity;BME280_pressure;Samples;Min_cycle;Max_cycle;Signal;HPM_P1;HPM_P2
2023/01/29 00:01:21;;;;;;;7.35;2.50;;;;;;;;;;5008470;28;20038;-71
2023/01/29 00:03:49;;;;;;;4.88;2.35;;;;;;;;;;5008033;28;20040;-70
2023/01/29 00:06:14;;;;;;;6.53;2.70;;;;;;;;;;5006560;28;20398;-69
2023/01/29 00:08:40;;;;;;;4.07;2.38;;;;;;;;;;4989730;28;20026;-69
2023/01/29 00:11:05;;;;;;;7.60;2.58;;;;;;;;;;5006399;28;20064;-69
2023/01/29 00:13:31;;;;;;;7.55;2.60;;;;;;;;;;5008026;28;20545;-69
2023/01/29 00:15:57;;;;;;;8.38;2.78;;;;;;;;;;4990128;28;20042;-69
2023/01/29 00:18:22;;;;;;;5.72;2.25;;;;;;;;;;5006071;28;20030;-74
2023/01/29 00:20:50;;;;;;;7.68;2.70;;;;;;;;;;5008189;28;20272;-69
2023/01/29 00:23:16;;;;;;;7.65;2.30;;;;;;;;;;5005580;28;20036;-70
2023/01/29 00:25:41;;;;;;;6.13;2.38;;;;;;;;;;5004068;28;20034;-75
2023/01/29 00:28:07;;;;;;;5.93;2.80;;;;;;;;;;4988184;28;20455;-73
2023/01/29 00:30:35;;;;;;;7.88;2.65;;;;;;;;;;4988415;28;20399;-75
2023/01/29 00:33:00;;;;;;;5.75;1.80;;;;;;;;;;4988067;28;20026;-74
2023/01/29 00:35:26;;;;;;;6.50;2.08;;;;;;;;;;4988168;28;20492;-74
2023/01/29 00:37:51;;;;;;;6.97;2.00;;;;;;;;;;4985623;28;20027;-74
2023/01/29 00:40:16;;;;;;;6.43;2.45;;;;;;;;;;4988099;28;20484;-74
2023/01/29 00:45:29;;;;;;;4.75;2.00;;;;;;;;;;4987777;28;20125;-74
2023/01/29 00:47:54;;;;;;;6.22;1.92;;;;;;;;;;4987953;28;20109;-74
2023/01/29 00:50:19;;;;;;;10.13;2.40;;;;;;;;;;5006924;28;20169;-73
2023/01/29 00:52:45;;;;;;;4.15;1.80;;;;;;;;;;5006878;28;20040;-74
2023/01/29 00:55:10;;;;;;;4.18;1.90;;;;;;;;;;5005402;28;20053;-74
2023/01/29 00:57:36;;;;;;;5.30;2.03;;;;;;;;;;4989596;28;20034;-73
2023/01/29 01:00:03;;;;;;;8.75;2.30;;;;;;;;;;5006680;28;20041;-69
2023/01/29 01:05:16;;;;;;;5.90;2.13;;;;;;;;;;5006904;28;20041;-70
2023/01/29 01:07:42;;;;;;;5.13;2.00;;;;;;;;;;5004955;28;20037;-70
2023/01/29 01:10:21;;;;;;;3.92;2.22;;;;;;;;;;5005266;28;20034;-70
2023/01/29 01:12:49;;;;;;;7.13;2.33;;;;;;;;;;5006645;28;20059;-70
2023/01/29 01:15:15;;;;;;;9.30;2.58;;;;;;;;;;4988562;28;20034;-69
2023/01/29 01:17:40;;;;;;;7.35;2.17;;;;;;;;;;5006917;28;20298;-69
2023/01/29 01:20:06;;;;;;;9.20;2.30;;;;;;;;;;5005109;28;20053;-69
2023/01/29 01:22:31;;;;;;;3.70;1.95;;;;;;;;;;5005091;28;20540;-71
2023/01/29 01:24:56;;;;;;;6.95;2.58;;;;;;;;;;5004874;28;20026;-71
2023/01/29 01:27:22;;;;;;;9.85;2.40;;;;;;;;;;4988115;28;20083;-71
2023/01/29 01:29:47;;;;;;;6.32;2.47;;;;;;;;;;4985635;28;20038;-70
2023/01/29 01:32:15;;;;;;;5.05;2.60;;;;;;;;;;4986983;28;20034;-70
2023/01/29 01:34:40;;;;;;;7.78;2.53;;;;;;;;;;4986992;28;20053;-70
2023/01/29 01:37:06;;;;;;;7.82;3.35;;;;;;;;;;4991212;28;20107;-71
2023/01/29 01:39:31;;;;;;;9.88;2.75;;;;;;;;;;4969306;28;20026;-70
2023/01/29 01:41:56;;;;;;;5.93;2.85;;;;;;;;;;4985542;28;20491;-70
2023/01/29 01:44:40;;;;;;;10.02;3.08;;;;;;;;;;4968487;28;20031;-70
2023/01/29 01:47:06;;;;;;;11.52;2.97;;;;;;;;;;4998224;28;20045;-75
2023/01/29 01:49:31;;;;;;;8.60;3.15;;;;;;;;;;5005843;28;20030;-75
2023/01/29 01:51:57;;;;;;;10.18;3.00;;;;;;;;;;5004126;28;20033;-74
2023/01/29 01:54:23;;;;;;;6.75;3.10;;;;;;;;;;5006515;28;20119;-74
2023/01/29 01:56:54;;;;;;;10.75;3.22;;;;;;;;;;5004132;28;20517;-75
2023/01/29 01:59:20;;;;;;;9.27;2.70;;;;;;;;;;5006013;28;20030;-74
2023/01/29 02:01:48;;;;;;;8.32;2.97;;;;;;;;;;4972144;28;20034;-74
2023/01/29 02:09:52;;;;;;;6.10;3.08;;;;;;;;;;5006092;28;20120;-71
2023/01/29 02:12:18;;;;;;;9.25;2.67;;;;;;;;;;4987213;28;20391;-70
2023/01/29 02:14:43;;;;;;;10.93;2.63;;;;;;;;;;5004353;28;20117;-71
2023/01/29 02:17:10;;;;;;;7.53;2.80;;;;;;;;;;5005626;28;20128;-70
2023/01/29 02:19:58;;;;;;;6.93;2.65;;;;;;;;;;5004349;28;20037;-70
2023/01/29 02:22:36;;;;;;;6.18;2.47;;;;;;;;;;5005809;28;20117;-71
2023/01/29 02:25:11;;;;;;;8.95;2.80;;;;;;;;;;5001634;28;20022;-70
2023/01/29 02:27:55;;;;;;;7.63;3.60;;;;;;;;;;4984029;28;20026;-70
2023/01/29 02:30:21;;;;;;;9.68;3.53;;;;;;;;;;4985540;28;20369;-70
2023/01/29 02:33:06;;;;;;;8.43;3.38;;;;;;;;;;4985462;28;20037;-70
2023/01/29 02:35:54;;;;;;;13.45;3.97;;;;;;;;;;4985565;28;20053;-70
2023/01/29 02:38:25;;;;;;;11.82;4.20;;;;;;;;;;4985670;28;20057;-70
2023/01/29 02:40:51;;;;;;;9.38;3.50;;;;;;;;;;4985322;28;20027;-70
2023/01/29 02:43:35;;;;;;;11.50;3.58;;;;;;;;;;4986022;28;20117;-71
2023/01/29 02:46:11;;;;;;;9.27;4.05;;;;;;;;;;4988301;28;20077;-70
2023/01/29 02:48:42;;;;;;;9.25;3.47;;;;;;;;;;5003349;28;20035;-70
2023/01/29 02:51:12;;;;;;;7.82;3.53;;;;;;;;;;4986359;28;20038;-71
2023/01/29 02:53:50;;;;;;;11.32;3.92;;;;;;;;;;5004656;28;20049;-71
2023/01/29 02:56:23;;;;;;;10.85;3.55;;;;;;;;;;5004896;28;20477;-71
2023/01/29 02:58:56;;;;;;;6.28;3.22;;;;;;;;;;5003361;28;20030;-71
2023/01/29 03:01:29;;;;;;;11.75;3.70;;;;;;;;;;5005108;28;20088;-71
2023/01/29 03:03:57;;;;;;;9.38;3.70;;;;;;;;;;5002749;28;20049;-71
2023/01/29 03:06:23;;;;;;;9.05;3.78;;;;;;;;;;5003090;28;20575;-75
2023/01/29 03:08:54;;;;;;;9.20;4.32;;;;;;;;;;5003728;28;20108;-74
2023/01/29 03:11:19;;;;;;;6.18;3.42;;;;;;;;;;5003254;28;20037;-74
2023/01/29 03:13:45;;;;;;;9.35;3.38;;;;;;;;;;4987004;28;20022;-74
2023/01/29 03:16:13;;;;;;;9.00;3.58;;;;;;;;;;5004216;28;20034;-74
2023/01/29 03:18:44;;;;;;;9.77;3.55;;;;;;;;;;5002944;28;20109;-74
2023/01/29 03:32:13;;;;;;;13.93;4.15;;;;;;;;;;4971525;28;20121;-74
2023/01/29 03:34:40;;;;;;;7.20;3.38;;;;;;;;;;4983625;28;20181;-75
2023/01/29 03:37:20;;;;;;;7.13;3.53;;;;;;;;;;4983073;28;20080;-75
2023/01/29 03:39:45;;;;;;;9.20;4.05;;;;;;;;;;4985219;28;20391;-74
2023/01/29 03:42:28;;;;;;;10.52;3.78;;;;;;;;;;4983183;28;20023;-77
2023/01/29 03:44:59;;;;;;;12.98;4.50;;;;;;;;;;4983426;28;20038;-75
2023/01/29 03:47:30;;;;;;;13.57;5.35;;;;;;;;;;4996747;28;20632;-75
2023/01/29 03:50:04;;;;;;;11.50;4.60;;;;;;;;;;5002814;28;20030;-73
2023/01/29 03:52:33;;;;;;;9.85;4.60;;;;;;;;;;5003803;28;20534;-75
2023/01/29 03:55:05;;;;;;;8.40;4.80;;;;;;;;;;5004351;28;20073;-75
2023/01/29 03:57:33;;;;;;;15.80;5.43;;;;;;;;;;5004240;28;20364;-70
2023/01/29 04:00:14;;;;;;;12.77;4.78;;;;;;;;;;5003934;28;20030;-70
2023/01/29 04:03:00;;;;;;;15.82;5.78;;;;;;;;;;5003842;28;20022;-70
2023/01/29 04:05:29;;;;;;;13.73;5.90;;;;;;;;;;5003625;28;20100;-71
2023/01/29 04:08:00;;;;;;;20.00;6.28;;;;;;;;;;5003843;28;20030;-69
2023/01/29 04:10:28;;;;;;;14.85;5.47;;;;;;;;;;5003802;28;20038;-71
2023/01/29 04:13:01;;;;;;;12.18;5.82;;;;;;;;;;5004755;28;21549;-71
2023/01/29 04:15:28;;;;;;;10.38;5.63;;;;;;;;;;5004217;28;20050;-75
2023/01/29 04:17:57;;;;;;;9.95;5.63;;;;;;;;;;5004162;28;20037;-74
2023/01/29 04:20:22;;;;;;;13.70;6.18;;;;;;;;;;5003499;28;20076;-75
2023/01/29 04:22:50;;;;;;;10.75;4.82;;;;;;;;;;5004004;28;20034;-74
2023/01/29 04:25:25;;;;;;;14.32;5.07;;;;;;;;;;4987795;28;20027;-74
2023/01/29 04:28:05;;;;;;;9.50;5.60;;;;;;;;;;4984467;28;20053;-75
2023/01/29 04:30:46;;;;;;;7.97;5.22;;;;;;;;;;4966065;28;20023;-75
2023/01/29 04:33:21;;;;;;;10.57;5.50;;;;;;;;;;4982886;28;20123;-75
2023/01/29 04:35:46;;;;;;;12.70;5.50;;;;;;;;;;4982746;28;20038;-74
2023/01/29 04:38:31;;;;;;;10.75;5.75;;;;;;;;;;4986074;28;20026;-75
2023/01/29 04:41:05;;;;;;;13.05;7.38;;;;;;;;;;4987440;28;20058;-74
2023/01/29 04:43:48;;;;;;;16.50;7.63;;;;;;;;;;4987826;28;20033;-74
2023/01/29 04:46:24;;;;;;;13.57;7.80;;;;;;;;;;4974200;28;20034;-74
2023/01/29 04:49:01;;;;;;;13.38;6.93;;;;;;;;;;5007563;28;20487;-74
2023/01/29 04:51:30;;;;;;;14.32;7.45;;;;;;;;;;5006855;28;20553;-74
2023/01/29 04:53:55;;;;;;;13.60;7.47;;;;;;;;;;5005399;28;20038;-73
2023/01/29 04:56:50;;;;;;;13.70;7.60;;;;;;;;;;5005600;28;20157;-74
2023/01/29 04:59:19;;;;;;;12.65;6.97;;;;;;;;;;5005895;28;20053;-73
2023/01/29 05:01:46;;;;;;;12.80;6.32;;;;;;;;;;4989360;28;20026;-73
2023/01/29 05:04:16;;;;;;;14.07;7.18;;;;;;;;;;5007136;28;20037;-74
2023/01/29 05:06:42;;;;;;;15.02;7.07;;;;;;;;;;5004939;28;20039;-73
2023/01/29 05:09:08;;;;;;;12.13;6.95;;;;;;;;;;5005724;28;20030;-74
2023/01/29 05:11:36;;;;;;;15.55;7.13;;;;;;;;;;5006787;28;20410;-74
2023/01/29 05:14:04;;;;;;;18.23;6.80;;;;;;;;;;4989083;28;20026;-74
2023/01/29 05:16:40;;;;;;;14.18;7.28;;;;;;;;;;5007048;28;20494;-74
2023/01/29 05:19:07;;;;;;;14.85;6.80;;;;;;;;;;5006670;28;20057;-74
2023/01/29 05:21:35;;;;;;;13.52;7.13;;;;;;;;;;5006125;28;20394;-74
2023/01/29 05:24:09;;;;;;;15.35;7.45;;;;;;;;;;4980394;28;20041;-75
2023/01/29 05:29:19;;;;;;;14.38;7.07;;;;;;;;;;4986890;28;20026;-74
2023/01/29 05:31:44;;;;;;;15.25;8.35;;;;;;;;;;4987295;28;20162;-75
2023/01/29 05:34:09;;;;;;;14.95;7.82;;;;;;;;;;4968862;28;20027;-73
2023/01/29 05:36:35;;;;;;;16.48;8.15;;;;;;;;;;4985721;28;20424;-74
2023/01/29 05:39:00;;;;;;;18.42;8.52;;;;;;;;;;4986774;28;20162;-74
2023/01/29 05:41:25;;;;;;;18.02;11.68;;;;;;;;;;4985397;28;20030;-75
2023/01/29 05:43:50;;;;;;;26.27;13.43;;;;;;;;;;4984936;28;20436;-74
2023/01/29 05:46:16;;;;;;;22.98;12.80;;;;;;;;;;4991784;28;20030;-75
2023/01/29 05:48:41;;;;;;;21.05;13.00;;;;;;;;;;5003921;28;20029;-74
2023/01/29 05:51:06;;;;;;;25.75;14.00;;;;;;;;;;5006843;28;20060;-74
2023/01/29 05:53:32;;;;;;;29.10;14.52;;;;;;;;;;5004428;28;20045;-76
2023/01/29 05:56:00;;;;;;;24.90;13.90;;;;;;;;;;5004325;28;20046;-74
2023/01/29 05:58:25;;;;;;;28.58;14.88;;;;;;;;;;5005927;28;20447;-70
2023/01/29 06:00:50;;;;;;;27.50;14.57;;;;;;;;;;5004607;28;20050;-71
2023/01/29 06:03:15;;;;;;;26.10;14.35;;;;;;;;;;5003965;28;20376;-70
2023/01/29 06:05:41;;;;;;;28.25;13.73;;;;;;;;;;5006246;28;20092;-73
2023/01/29 06:08:07;;;;;;;26.27;14.05;;;;;;;;;;5004871;28;20038;-74
2023/01/29 06:10:32;;;;;;;28.13;13.70;;;;;;;;;;5005381;28;20026;-74
2023/01/29 06:12:57;;;;;;;24.52;12.77;;;;;;;;;;5006264;28;20045;-74
2023/01/29 06:15:25;;;;;;;25.33;12.57;;;;;;;;;;5005072;28;20041;-75
2023/01/29 06:17:52;;;;;;;23.70;13.27;;;;;;;;;;5006138;28;20044;-73
2023/01/29 06:20:17;;;;;;;28.02;13.65;;;;;;;;;;5003972;28;20506;-74
2023/01/29 06:22:42;;;;;;;23.80;13.57;;;;;;;;;;5001249;28;20030;-75
2023/01/29 06:25:08;;;;;;;29.63;14.38;;;;;;;;;;4985611;28;20163;-74
2023/01/29 06:27:33;;;;;;;22.55;13.82;;;;;;;;;;4984603;28;20030;-75
2023/01/29 06:29:58;;;;;;;28.42;14.57;;;;;;;;;;4985897;28;20049;-75
2023/01/29 06:32:24;;;;;;;27.08;14.48;;;;;;;;;;4983923;28;20040;-76
2023/01/29 06:34:49;;;;;;;28.70;13.45;;;;;;;;;;4985406;28;20034;-73
2023/01/29 06:37:14;;;;;;;30.67;13.32;;;;;;;;;;4984354;28;20022;-74
2023/01/29 06:39:39;;;;;;;28.92;13.85;;;;;;;;;;4985138;28;20448;-74
2023/01/29 06:42:05;;;;;;;26.73;13.85;;;;;;;;;;4985762;28;20026;-74
2023/01/29 06:44:30;;;;;;;23.17;13.02;;;;;;;;;;4984973;28;20023;-70
2023/01/29 06:46:55;;;;;;;33.50;14.02;;;;;;;;;;4995830;28;20501;-71
2023/01/29 06:49:21;;;;;;;26.83;13.98;;;;;;;;;;5005428;28;20038;-75
2023/01/29 06:51:48;;;;;;;31.20;14.85;;;;;;;;;;5003549;28;20018;-75
2023/01/29 06:54:14;;;;;;;25.23;14.90;;;;;;;;;;5004632;28;20030;-74
2023/01/29 06:56:39;;;;;;;28.25;13.38;;;;;;;;;;5005433;28;20111;-74
2023/01/29 06:59:04;;;;;;;23.58;13.82;;;;;;;;;;5004148;28;20091;-72
2023/01/29 07:01:30;;;;;;;24.98;13.90;;;;;;;;;;5003545;28;20030;-73
2023/01/29 07:03:55;;;;;;;25.08;13.40;;;;;;;;;;4986785;28;20030;-75
2023/01/29 07:06:25;;;;;;;28.15;14.27;;;;;;;;;;5004916;28;20423;-74
2023/01/29 07:08:53;;;;;;;26.67;13.80;;;;;;;;;;5002800;28;20084;-73
2023/01/29 07:11:20;;;;;;;28.05;13.38;;;;;;;;;;5003581;28;20482;-74
2023/01/29 07:13:46;;;;;;;26.05;12.23;;;;;;;;;;5002982;28;20483;-75
2023/01/29 07:16:11;;;;;;;22.02;12.27;;;;;;;;;;5003204;28;20041;-74
2023/01/29 07:18:36;;;;;;;26.45;11.50;;;;;;;;;;5002669;28;20037;-74
2023/01/29 07:21:07;;;;;;;26.25;12.00;;;;;;;;;;5004929;28;20076;-74
2023/01/29 07:23:33;;;;;;;26.17;12.15;;;;;;;;;;4986424;28;20104;-73
2023/01/29 07:26:02;;;;;;;22.23;10.93;;;;;;;;;;4985649;28;20078;-74
2023/01/29 07:28:28;;;;;;;19.30;10.32;;;;;;;;;;4983208;28;20034;-74
2023/01/29 07:30:57;;;;;;;20.35;10.23;;;;;;;;;;4986164;28;20453;-74
2023/01/29 07:33:22;;;;;;;23.63;10.55;;;;;;;;;;4983008;28;20412;-74
2023/01/29 07:35:47;;;;;;;25.42;10.85;;;;;;;;;;4985408;28;20300;-75
2023/01/29 07:38:12;;;;;;;25.33;10.85;;;;;;;;;;4984836;28;20048;-74
2023/01/29 07:40:38;;;;;;;26.13;10.73;;;;;;;;;;4983139;28;20033;-74
2023/01/29 07:43:05;;;;;;;27.40;10.13;;;;;;;;;;4984712;28;20026;-74
2023/01/29 07:45:30;;;;;;;26.77;10.70;;;;;;;;;;4983295;28;20034;-75
2023/01/29 07:47:56;;;;;;;25.08;10.23;;;;;;;;;;5002924;28;20026;-74
2023/01/29 07:50:22;;;;;;;23.15;10.35;;;;;;;;;;4987038;28;20056;-74
2023/01/29 07:52:50;;;;;;;21.45;10.68;;;;;;;;;;5003813;28;20520;-74
2023/01/29 07:55:15;;;;;;;21.88;11.32;;;;;;;;;;5002344;28;20469;-74
2023/01/29 07:57:43;;;;;;;26.58;11.63;;;;;;;;;;5004705;28;20030;-74
2023/01/29 08:00:11;;;;;;;21.90;10.30;;;;;;;;;;5004363;28;20041;-75
2023/01/29 08:02:36;;;;;;;20.52;9.82;;;;;;;;;;5004648;28;20052;-76
2023/01/29 08:05:02;;;;;;;25.23;10.25;;;;;;;;;;5002515;28;20030;-77
2023/01/29 08:07:27;;;;;;;25.95;9.57;;;;;;;;;;5004613;28;20050;-71
2023/01/29 08:09:53;;;;;;;20.30;8.57;;;;;;;;;;5002400;28;20405;-74
2023/01/29 08:12:20;;;;;;;25.33;8.80;;;;;;;;;;4990210;28;20045;-74
2023/01/29 08:14:46;;;;;;;21.20;8.93;;;;;;;;;;5008066;28;20502;-74
2023/01/29 08:17:12;;;;;;;20.10;7.45;;;;;;;;;;5006319;28;20034;-73
2023/01/29 08:19:37;;;;;;;20.92;8.05;;;;;;;;;;5007863;28;20022;-74
2023/01/29 08:22:03;;;;;;;19.73;7.28;;;;;;;;;;4998273;28;20057;-74
2023/01/29 08:24:31;;;;;;;16.38;6.90;;;;;;;;;;4986384;28;20491;-73
2023/01/29 08:26:56;;;;;;;16.05;7.05;;;;;;;;;;4988504;28;20018;-75
2023/01/29 08:29:21;;;;;;;16.65;6.68;;;;;;;;;;4986460;28;20510;-74
2023/01/29 08:31:46;;;;;;;20.15;6.68;;;;;;;;;;4988557;28;20061;-73
2023/01/29 08:34:14;;;;;;;18.75;7.53;;;;;;;;;;4986183;28;20292;-70
2023/01/29 08:36:39;;;;;;;17.00;6.50;;;;;;;;;;4986570;28;20045;-71
2023/01/29 08:39:05;;;;;;;16.20;6.55;;;;;;;;;;4986101;28;20034;-71
2023/01/29 08:41:30;;;;;;;20.90;6.78;;;;;;;;;;4986796;28;20031;-71
2023/01/29 08:43:56;;;;;;;18.13;6.47;;;;;;;;;;4985942;28;20296;-71
2023/01/29 08:46:21;;;;;;;20.15;6.75;;;;;;;;;;4993769;28;20041;-71
2023/01/29 08:48:47;;;;;;;14.95;6.65;;;;;;;;;;5005683;28;20026;-71
2023/01/29 08:51:12;;;;;;;16.10;6.35;;;;;;;;;;5007432;28;20401;-70
2023/01/29 08:53:37;;;;;;;18.77;6.55;;;;;;;;;;5006581;28;20147;-72
2023/01/29 08:56:03;;;;;;;14.88;6.45;;;;;;;;;;5007568;28;20057;-71
2023/01/29 08:58:28;;;;;;;20.73;7.32;;;;;;;;;;5005044;28;20448;-70
2023/01/29 09:00:54;;;;;;;22.10;8.10;;;;;;;;;;5006167;28;20489;-74
2023/01/29 09:03:19;;;;;;;18.60;7.40;;;;;;;;;;5005660;28;20033;-71
2023/01/29 09:05:45;;;;;;;18.05;7.30;;;;;;;;;;4988958;28;20034;-71
2023/01/29 09:08:11;;;;;;;15.65;6.68;;;;;;;;;;5005361;28;20057;-71
2023/01/29 09:10:36;;;;;;;17.33;6.30;;;;;;;;;;5006883;28;20030;-70
2023/01/29 09:13:01;;;;;;;18.30;5.55;;;;;;;;;;5007534;28;20040;-70
2023/01/29 09:15:27;;;;;;;18.30;5.55;;;;;;;;;;5006468;28;20057;-70
2023/01/29 09:17:52;;;;;;;12.77;4.95;;;;;;;;;;5005294;28;20026;-71
2023/01/29 09:20:18;;;;;;;13.68;5.82;;;;;;;;;;5006417;28;20026;-72
2023/01/29 09:22:44;;;;;;;12.93;5.45;;;;;;;;;;4985529;28;20471;-71
2023/01/29 09:25:09;;;;;;;14.15;4.90;;;;;;;;;;4986669;28;20030;-70
2023/01/29 09:27:35;;;;;;;12.63;4.93;;;;;;;;;;4985716;28;20026;-70
2023/01/29 09:30:00;;;;;;;13.20;5.20;;;;;;;;;;4987110;28;20036;-70
2023/01/29 09:32:25;;;;;;;14.75;4.80;;;;;;;;;;4987099;28;20034;-70
2023/01/29 09:34:51;;;;;;;13.48;5.18;;;;;;;;;;4985032;28;20027;-71
2023/01/29 09:37:16;;;;;;;15.48;5.63;;;;;;;;;;4987237;28;20019;-70
2023/01/29 09:39:42;;;;;;;9.40;5.07;;;;;;;;;;4985043;28;20030;-71
2023/01/29 09:42:11;;;;;;;19.70;5.78;;;;;;;;;;4985415;28;20030;-70
2023/01/29 09:45:12;;;;;;;18.95;6.07;;;;;;;;;;4986432;28;20019;-70
2023/01/29 09:47:37;;;;;;;18.17;6.25;;;;;;;;;;4963795;28;20117;-70
2023/01/29 09:50:11;;;;;;;12.93;5.80;;;;;;;;;;4976587;28;20113;-70
2023/01/29 09:52:44;;;;;;;17.00;6.43;;;;;;;;;;4984516;28;20118;-71
2023/01/29 09:55:14;;;;;;;18.35;6.05;;;;;;;;;;4985124;28;20048;-75
2023/01/29 09:57:50;;;;;;;15.57;6.28;;;;;;;;;;4986470;28;20122;-75
2023/01/29 10:00:19;;;;;;;17.98;6.18;;;;;;;;;;4986555;28;20029;-71
2023/01/29 10:03:03;;;;;;;11.60;4.97;;;;;;;;;;4985073;28;20045;-70
2023/01/29 10:05:28;;;;;;;16.05;5.53;;;;;;;;;;4986211;28;20037;-71
2023/01/29 10:08:12;;;;;;;12.20;5.88;;;;;;;;;;4986800;28;20384;-70
2023/01/29 10:10:46;;;;;;;14.63;6.05;;;;;;;;;;4986449;28;20049;-71
2023/01/29 10:13:15;;;;;;;12.95;5.55;;;;;;;;;;4986525;28;20045;-71
2023/01/29 10:15:46;;;;;;;16.15;5.85;;;;;;;;;;4984585;28;20042;-70
2023/01/29 10:18:14;;;;;;;16.70;5.97;;;;;;;;;;4985778;28;20518;-70
2023/01/29 10:20:42;;;;;;;11.02;4.72;;;;;;;;;;4984105;28;20031;-70
2023/01/29 10:23:10;;;;;;;13.82;5.40;;;;;;;;;;4968414;28;20369;-70
2023/01/29 10:25:38;;;;;;;16.88;5.72;;;;;;;;;;4986034;28;20033;-71
2023/01/29 10:28:14;;;;;;;18.75;5.30;;;;;;;;;;4985121;28;20105;-71
2023/01/29 10:30:45;;;;;;;14.32;5.63;;;;;;;;;;4984499;28;20134;-75
2023/01/29 10:33:15;;;;;;;16.65;6.57;;;;;;;;;;4985839;28;20037;-74
2023/01/29 10:35:42;;;;;;;11.40;5.20;;;;;;;;;;4985765;28;20062;-73
2023/01/29 10:38:14;;;;;;;9.88;5.10;;;;;;;;;;4984455;28;20089;-75
2023/01/29 10:40:39;;;;;;;;;;;;;;;;;;4986021;28;20030;-74
2023/01/29 10:43:16;;;;;;;16.90;5.15;;;;;;;;;;4984817;28;20410;-75
2023/01/29 10:45:41;;;;;;;20.02;5.93;;;;;;;;;;4983977;28;20422;-74
2023/01/29 10:48:36;;;;;;;13.50;4.97;;;;;;;;;;5004053;28;20104;-70
2023/01/29 10:51:04;;;;;;;11.18;5.63;;;;;;;;;;5004195;28;20379;-72
2023/01/29 10:53:52;;;;;;;16.23;5.78;;;;;;;;;;5004782;28;20060;-70
2023/01/29 10:56:24;;;;;;;12.18;4.53;;;;;;;;;;5004523;28;20526;-74
2023/01/29 10:59:01;;;;;;;15.70;6.70;;;;;;;;;;5004853;28;20510;-70
2023/01/29 11:01:26;;;;;;;25.10;8.30;;;;;;;;;;5004568;28;20125;-73
2023/01/29 11:03:54;;;;;;;19.55;7.85;;;;;;;;;;5005635;28;20491;-71
2023/01/29 11:06:29;;;;;;;20.67;7.75;;;;;;;;;;5004530;28;20026;-74
2023/01/29 11:09:03;;;;;;;22.25;7.75;;;;;;;;;;5004967;28;20169;-74
2023/01/29 11:11:39;;;;;;;17.33;7.53;;;;;;;;;;5005053;28;20030;-70
2023/01/29 11:14:17;;;;;;;20.85;7.63;;;;;;;;;;5005186;28;20026;-71
2023/01/29 11:16:45;;;;;;;21.55;7.72;;;;;;;;;;5004714;28;20108;-70
2023/01/29 11:19:11;;;;;;;13.27;6.68;;;;;;;;;;5004455;28;20052;-72
2023/01/29 11:21:50;;;;;;;15.02;7.10;;;;;;;;;;4985217;28;20076;-73
2023/01/29 11:24:16;;;;;;;23.80;7.43;;;;;;;;;;4983424;28;20046;-74
2023/01/29 11:26:42;;;;;;;23.27;6.70;;;;;;;;;;4983919;28;20519;-74
2023/01/29 11:29:29;;;;;;;20.58;6.13;;;;;;;;;;4983162;28;20037;-73
2023/01/29 11:31:57;;;;;;;20.50;6.20;;;;;;;;;;4983430;28;20031;-74
2023/01/29 11:34:24;;;;;;;17.98;6.18;;;;;;;;;;4985551;28;20117;-74
2023/01/29 11:37:15;;;;;;;20.05;6.30;;;;;;;;;;4983379;28;20034;-74
2023/01/29 11:39:47;;;;;;;16.13;5.37;;;;;;;;;;4980406;28;20093;-74
2023/01/29 11:42:19;;;;;;;20.45;5.72;;;;;;;;;;4985088;28;20365;-75
2023/01/29 11:44:47;;;;;;;18.48;5.82;;;;;;;;;;4983067;28;20035;-74
2023/01/29 11:47:15;;;;;;;16.70;5.40;;;;;;;;;;4999386;28;20374;-75
2023/01/29 11:49:50;;;;;;;19.17;5.65;;;;;;;;;;5008584;28;20489;-75
2023/01/29 11:52:20;;;;;;;15.02;5.32;;;;;;;;;;5008054;28;20050;-74
2023/01/29 11:54:45;;;;;;;18.92;5.55;;;;;;;;;;5006646;28;20044;-74
2023/01/29 11:57:26;;;;;;;16.38;6.25;;;;;;;;;;5008562;28;20049;-72
2023/01/29 11:59:51;;;;;;;14.90;5.88;;;;;;;;;;5008318;28;20033;-71
2023/01/29 12:02:30;;;;;;;15.05;6.65;;;;;;;;;;5007198;28;20037;-70
2023/01/29 12:04:59;;;;;;;12.27;6.53;;;;;;;;;;5008076;28;20030;-75
2023/01/29 12:07:24;;;;;;;18.00;6.40;;;;;;;;;;5006543;28;20116;-74
2023/01/29 12:09:54;;;;;;;17.95;6.97;;;;;;;;;;5006937;28;20400;-76
2023/01/29 12:12:22;;;;;;;22.60;8.63;;;;;;;;;;5008193;28;20033;-73
2023/01/29 12:15:00;;;;;;;25.88;7.68;;;;;;;;;;5007491;28;20103;-75
2023/01/29 12:17:31;;;;;;;24.80;8.23;;;;;;;;;;5006041;28;20411;-75
2023/01/29 12:19:58;;;;;;;30.48;9.32;;;;;;;;;;4996180;28;20523;-71
2023/01/29 12:22:39;;;;;;;26.83;10.30;;;;;;;;;;4986758;28;20038;-72
2023/01/29 12:25:07;;;;;;;28.40;7.97;;;;;;;;;;4970831;28;20110;-71
2023/01/29 12:27:51;;;;;;;18.60;7.78;;;;;;;;;;4986835;28;20506;-71
2023/01/29 12:30:23;;;;;;;26.88;8.45;;;;;;;;;;4987883;28;20031;-73
2023/01/29 12:32:48;;;;;;;26.85;7.63;;;;;;;;;;4988256;28;20061;-75
2023/01/29 12:35:25;;;;;;;25.05;8.18;;;;;;;;;;4988164;28;20117;-74
2023/01/29 12:37:59;;;;;;;30.25;9.10;;;;;;;;;;4987961;28;20022;-74
2023/01/29 12:40:28;;;;;;;22.23;9.02;;;;;;;;;;4986550;28;20061;-74
2023/01/29 12:42:56;;;;;;;30.13;8.77;;;;;;;;;;4987647;28;20114;-73
2023/01/29 12:45:22;;;;;;;26.92;8.23;;;;;;;;;;4970004;28;20387;-74
2023/01/29 12:47:52;;;;;;;30.15;8.85;;;;;;;;;;5003050;28;20028;-74
2023/01/29 12:50:19;;;;;;;27.75;8.00;;;;;;;;;;5006006;28;20513;-75
2023/01/29 12:52:47;;;;;;;27.00;8.75;;;;;;;;;;5006102;28;20050;-75
2023/01/29 12:55:15;;;;;;;34.28;10.43;;;;;;;;;;5005749;28;20522;-73
2023/01/29 12:57:44;;;;;;;30.85;9.70;;;;;;;;;;4987720;28;20080;-74
2023/01/29 13:00:19;;;;;;;30.30;11.05;;;;;;;;;;5005717;28;20105;-75
2023/01/29 13:03:03;;;;;;;35.03;11.07;;;;;;;;;;5007124;28;20022;-74
2023/01/29 13:05:32;;;;;;;36.00;11.88;;;;;;;;;;5005691;28;20026;-71
2023/01/29 13:08:03;;;;;;;37.08;12.75;;;;;;;;;;5006763;28;20032;-71
2023/01/29 13:10:33;;;;;;;36.33;12.32;;;;;;;;;;5007194;28;20033;-72
2023/01/29 13:13:05;;;;;;;42.25;14.73;;;;;;;;;;5004769;28;20507;-71
2023/01/29 13:15:33;;;;;;;40.93;13.80;;;;;;;;;;5007008;28;20117;-71
2023/01/29 13:18:06;;;;;;;36.97;14.05;;;;;;;;;;5006271;28;22115;-73
2023/01/29 13:20:32;;;;;;;33.97;13.27;;;;;;;;;;4969422;28;20035;-73
2023/01/29 13:23:04;;;;;;;49.15;13.75;;;;;;;;;;4969681;28;20038;-74
2023/01/29 13:25:29;;;;;;;46.72;13.63;;;;;;;;;;4969171;28;20074;-73
2023/01/29 13:27:57;;;;;;;38.03;12.77;;;;;;;;;;4985181;28;20399;-74
2023/01/29 13:30:23;;;;;;;44.60;12.73;;;;;;;;;;4987649;28;20109;-75
2023/01/29 13:32:50;;;;;;;38.28;12.32;;;;;;;;;;4985394;28;20100;-74
2023/01/29 13:35:17;;;;;;;36.83;11.93;;;;;;;;;;4987383;28;20026;-74
2023/01/29 13:37:50;;;;;;;34.20;11.10;;;;;;;;;;4986908;28;20018;-73
2023/01/29 13:40:23;;;;;;;45.15;14.00;;;;;;;;;;4969126;28;20022;-74
2023/01/29 13:42:48;;;;;;;37.10;11.80;;;;;;;;;;4985632;28;20054;-74
2023/01/29 13:45:37;;;;;;;33.53;10.70;;;;;;;;;;4985634;28;20508;-73
2023/01/29 13:48:27;;;;;;;40.35;10.48;;;;;;;;;;5001030;28;20029;-77
2023/01/29 13:50:59;;;;;;;30.70;10.98;;;;;;;;;;5005669;28;20026;-75
2023/01/29 13:53:29;;;;;;;40.65;12.35;;;;;;;;;;5004087;28;20040;-73
2023/01/29 13:56:15;;;;;;;38.40;11.73;;;;;;;;;;5003694;28;20053;-73
2023/01/29 13:58:43;;;;;;;37.72;11.55;;;;;;;;;;5005641;28;20080;-74
2023/01/29 14:01:08;;;;;;;26.33;10.10;;;;;;;;;;5004619;28;20053;-74
2023/01/29 14:03:41;;;;;;;41.08;11.73;;;;;;;;;;5006695;28;20030;-74
2023/01/29 14:06:07;;;;;;;39.58;12.05;;;;;;;;;;4997811;28;20030;-74
2023/01/29 14:08:36;;;;;;;37.55;11.35;;;;;;;;;;5004348;28;20405;-74
2023/01/29 14:11:14;;;;;;;33.70;11.90;;;;;;;;;;5005826;28;20084;-74
2023/01/29 14:13:40;;;;;;;32.08;11.00;;;;;;;;;;5006083;28;20181;-74
2023/01/29 14:16:09;;;;;;;41.05;12.43;;;;;;;;;;5004223;28;20639;-72
2023/01/29 14:18:37;;;;;;;34.95;12.48;;;;;;;;;;4994991;28;20026;-75
2023/01/29 14:21:04;;;;;;;37.90;11.70;;;;;;;;;;4985904;28;20056;-73
2023/01/29 14:23:32;;;;;;;37.78;12.05;;;;;;;;;;4984540;28;20045;-75
2023/01/29 14:25:58;;;;;;;34.90;11.88;;;;;;;;;;4968333;28;20033;-75
2023/01/29 14:28:28;;;;;;;31.38;12.50;;;;;;;;;;4984097;28;20394;-74
2023/01/29 14:30:53;;;;;;;38.08;12.90;;;;;;;;;;4986510;28;20204;-75
2023/01/29 14:33:38;;;;;;;49.40;13.18;;;;;;;;;;4985954;28;20030;-74
2023/01/29 14:36:12;;;;;;;38.47;12.60;;;;;;;;;;4984260;28;20064;-74
2023/01/29 14:38:45;;;;;;;47.13;12.82;;;;;;;;;;4984113;28;20030;-74
2023/01/29 14:41:30;;;;;;;37.58;13.35;;;;;;;;;;4985555;28;20483;-70
2023/01/29 14:44:17;;;;;;;37.33;12.80;;;;;;;;;;4985518;28;20117;-71
2023/01/29 14:46:43;;;;;;;40.95;12.35;;;;;;;;;;4993996;28;20053;-70
2023/01/29 14:49:08;;;;;;;55.60;14.35;;;;;;;;;;5005224;28;20030;-71
2023/01/29 14:51:37;;;;;;;48.15;14.85;;;;;;;;;;5005287;28;20091;-72
2023/01/29 14:54:23;;;;;;;49.20;12.70;;;;;;;;;;5003251;28;20046;-74
2023/01/29 14:56:54;;;;;;;47.45;11.63;;;;;;;;;;5005460;28;20073;-72
2023/01/29 14:59:28;;;;;;;33.25;10.23;;;;;;;;;;5005287;28;20034;-73
2023/01/29 15:01:59;;;;;;;50.35;10.90;;;;;;;;;;5003567;28;20034;-73
2023/01/29 15:04:29;;;;;;;36.27;9.40;;;;;;;;;;5004876;28;20479;-73
2023/01/29 15:07:00;;;;;;;37.30;8.77;;;;;;;;;;5004815;28;20738;-74